createdAt,value
2017-06-05T00:03:13.953Z,0
2017-06-05T00:08:10.611Z,0
2017-06-05T00:13:06.254Z,0
2017-06-05T00:18:02.186Z,0
2017-06-05T00:22:58.338Z,0
2017-06-05T00:27:54.152Z,0
2017-06-05T00:32:50.347Z,0
2017-06-05T00:37:46.361Z,0
2017-06-05T00:42:42.496Z,0
2017-06-05T00:47:38.433Z,0
2017-06-05T00:52:35.208Z,0
2017-06-05T00:57:30.678Z,0
2017-06-05T01:02:26.489Z,0
2017-06-05T01:07:23.341Z,0
2017-06-05T01:12:19.985Z,0
2017-06-05T01:17:16.626Z,0
2017-06-05T01:22:12.602Z,0
2017-06-05T01:27:08.329Z,0
2017-06-05T01:32:04.123Z,0
2017-06-05T01:36:59.642Z,0
2017-06-05T01:41:55.838Z,0
2017-06-05T01:46:51.283Z,0
2017-06-05T01:51:47.696Z,0
2017-06-05T01:56:43.680Z,0
2017-06-05T02:01:39.287Z,0
2017-06-05T02:06:35.455Z,0
2017-06-05T02:11:31.303Z,0
2017-06-05T02:16:27.107Z,0
2017-06-05T02:21:24.649Z,0
2017-06-05T02:26:20.105Z,0
2017-06-05T02:31:16.808Z,0
2017-06-05T02:36:12.291Z,0
2017-06-05T02:41:09.419Z,0
2017-06-05T02:46:04.921Z,0
2017-06-05T02:51:00.825Z,0
2017-06-05T02:55:56.533Z,0
2017-06-05T03:00:52.741Z,5
2017-06-05T03:05:49.075Z,5
2017-06-05T03:10:45.076Z,5
2017-06-05T03:15:40.859Z,5
2017-06-05T03:20:37.533Z,10
2017-06-05T03:25:33.340Z,10
2017-06-05T03:30:29.374Z,15
2017-06-05T03:35:25.074Z,20
2017-06-05T03:40:21.653Z,20
2017-06-05T03:45:18.432Z,25
2017-06-05T03:50:15.143Z,30
2017-06-05T03:55:10.553Z,40
2017-06-05T04:00:06.809Z,45
2017-06-05T04:05:03.041Z,50
2017-06-05T04:10:01.417Z,60
2017-06-05T04:14:57.565Z,65
2017-06-05T04:19:53.209Z,75
2017-06-05T04:24:49.400Z,85
2017-06-05T04:29:46.328Z,90
2017-06-05T04:34:41.739Z,100
2017-06-05T04:39:38.090Z,110
2017-06-05T04:44:33.860Z,115
2017-06-05T04:49:30.291Z,120
2017-06-05T04:54:26.377Z,120
2017-06-05T04:59:22.459Z,130
2017-06-05T05:04:20.656Z,135
2017-06-05T05:09:15.875Z,135
2017-06-05T05:14:12.335Z,140
2017-06-05T05:19:08.474Z,145
2017-06-05T05:24:04.174Z,140
2017-06-05T05:29:00.136Z,145
2017-06-05T05:33:56.481Z,155
2017-06-05T05:38:52.555Z,155
2017-06-05T05:43:49.253Z,165
2017-06-05T05:48:45.166Z,175
2017-06-05T05:53:41.199Z,175
2017-06-05T05:58:38.098Z,180
2017-06-05T06:03:33.844Z,185
2017-06-05T06:08:30.735Z,200
2017-06-05T06:13:26.287Z,195
2017-06-05T06:18:22.193Z,200
2017-06-05T06:23:18.526Z,210
2017-06-05T06:28:15.456Z,210
2017-06-05T06:33:11.417Z,215
2017-06-05T06:38:09.404Z,215
2017-06-05T06:43:04.743Z,220
2017-06-05T06:48:00.636Z,225
2017-06-05T06:52:56.339Z,225
2017-06-05T06:57:52.263Z,230
2017-06-05T07:02:48.355Z,230
2017-06-05T07:07:44.373Z,230
2017-06-05T07:12:40.398Z,240
2017-06-05T07:17:36.896Z,250
2017-06-05T07:22:34.533Z,255
2017-06-05T07:27:31.676Z,275
2017-06-05T07:32:27.489Z,295
2017-06-05T07:37:23.494Z,285
2017-06-05T07:42:21.068Z,280
2017-06-05T07:47:16.885Z,435
2017-06-05T07:52:15.248Z,885
2017-06-05T07:57:13.873Z,865
2017-06-05T08:02:11.553Z,805
2017-06-05T08:07:08.507Z,895
2017-06-05T08:12:05.372Z,890
2017-06-05T08:17:02.713Z,890
2017-06-05T08:22:00.490Z,1025
2017-06-05T08:26:57.149Z,1115
2017-06-05T08:31:53.782Z,1365
2017-06-05T08:36:51.038Z,1340
2017-06-05T08:41:49.034Z,1355
2017-06-05T08:46:44.921Z,1230
2017-06-05T08:51:41.435Z,1530
2017-06-05T08:56:38.695Z,1425
2017-06-05T09:01:35.704Z,850
2017-06-05T09:06:30.677Z,725
2017-06-05T09:11:25.631Z,635
2017-06-05T09:16:20.717Z,1185
2017-06-05T09:21:18.345Z,1325
2017-06-05T09:26:15.404Z,1295
2017-06-05T09:31:11.640Z,1575
2017-06-05T09:36:09.483Z,1310
2017-06-05T09:41:05.957Z,1765
2017-06-05T09:46:03.064Z,1905
2017-06-05T09:51:00.098Z,2010
2017-06-05T09:55:56.434Z,2045
2017-06-05T10:00:53.743Z,2080
2017-06-05T10:05:51.602Z,2000
2017-06-05T10:10:47.392Z,2070
2017-06-05T10:15:43.966Z,2180
2017-06-05T10:20:41.205Z,1995
2017-06-05T10:25:37.161Z,2030
2017-06-05T10:30:33.454Z,2065
2017-06-05T10:35:29.827Z,2040
2017-06-05T10:40:27.126Z,1875
2017-06-05T10:45:24.040Z,1935
2017-06-05T10:50:21.074Z,2040
2017-06-05T10:55:15.425Z,1950
2017-06-05T11:00:13.753Z,2090
2017-06-05T11:05:11.819Z,2105
2017-06-05T11:10:08.584Z,2005
2017-06-05T11:15:05.945Z,1945
2017-06-05T11:20:04.127Z,1525
2017-06-05T11:25:00.813Z,1945
2017-06-05T11:29:57.893Z,2185
2017-06-05T11:34:55.390Z,2015
2017-06-05T11:39:51.280Z,375
2017-06-05T11:44:46.854Z,1970
2017-06-05T11:49:45.098Z,2040
2017-06-05T11:54:41.424Z,1875
2017-06-05T11:59:36.293Z,2305
2017-06-05T12:04:32.826Z,2155
2017-06-05T12:09:29.635Z,1135
2017-06-05T12:14:26.298Z,2155
2017-06-05T12:19:23.120Z,1955
2017-06-05T12:24:15.063Z,2210
2017-06-05T12:29:12.748Z,360
2017-06-05T12:34:03.406Z,220
2017-06-05T12:39:00.741Z,830
2017-06-05T12:43:57.403Z,380
2017-06-05T12:48:52.262Z,265
2017-06-05T12:58:49.350Z,260
2017-06-05T13:03:46.324Z,285
2017-06-05T13:08:43.925Z,295
2017-06-05T13:13:39.765Z,2105
2017-06-05T13:18:38.656Z,405
2017-06-05T13:23:33.905Z,1955
2017-06-05T13:28:30.894Z,685
2017-06-05T13:33:27.788Z,1245
2017-06-05T13:38:24.132Z,330
2017-06-05T13:43:19.333Z,265
2017-06-05T13:48:15.894Z,450
2017-06-05T13:53:11.612Z,715
2017-06-05T13:58:06.962Z,225
2017-06-05T14:03:03.316Z,285
2017-06-05T14:07:58.685Z,315
2017-06-05T14:12:55.994Z,305
2017-06-05T14:17:51.813Z,310
2017-06-05T14:22:47.870Z,280
2017-06-05T14:27:43.757Z,275
2017-06-05T14:32:40.646Z,255
2017-06-05T14:37:36.070Z,220
2017-06-05T14:42:33.007Z,265
2017-06-05T14:47:28.865Z,260
2017-06-05T14:52:24.870Z,165
2017-06-05T14:57:20.504Z,145
2017-06-05T15:02:16.639Z,220
2017-06-05T15:07:13.439Z,215
2017-06-05T15:12:09.214Z,190
2017-06-05T15:17:06.163Z,165
2017-06-05T15:22:03.071Z,145
2017-06-05T15:26:58.470Z,150
2017-06-05T15:31:54.517Z,140
2017-06-05T15:36:50.440Z,125
2017-06-05T15:41:46.233Z,120
2017-06-05T15:46:42.136Z,130
2017-06-05T15:51:38.093Z,155
2017-06-05T15:56:36.426Z,145
2017-06-05T16:01:32.228Z,165
2017-06-05T16:06:28.563Z,200
2017-06-05T16:11:24.981Z,190
2017-06-05T16:16:21.872Z,175
2017-06-05T16:21:17.416Z,175
2017-06-05T16:26:13.599Z,185
2017-06-05T16:31:09.547Z,155
2017-06-05T16:36:05.856Z,115
2017-06-05T16:41:01.632Z,105
2017-06-05T16:45:58.428Z,95
2017-06-05T16:50:54.852Z,95
2017-06-05T16:55:50.626Z,90
2017-06-05T17:00:46.668Z,90
2017-06-05T17:05:42.461Z,90
2017-06-05T17:10:39.236Z,85
2017-06-05T17:15:35.790Z,85
2017-06-05T17:20:31.401Z,85
2017-06-05T17:25:27.477Z,85
2017-06-05T17:30:23.895Z,80
2017-06-05T17:35:19.958Z,75
2017-06-05T17:40:15.791Z,65
2017-06-05T17:45:11.566Z,70
2017-06-05T17:50:08.489Z,70
2017-06-05T17:55:04.218Z,60
2017-06-05T18:00:00.230Z,55
2017-06-05T18:04:56.961Z,55
2017-06-05T18:09:52.676Z,60
2017-06-05T18:14:48.921Z,55
2017-06-05T18:19:45.031Z,60
2017-06-05T18:24:41.083Z,55
2017-06-05T18:29:37.961Z,50
2017-06-05T18:34:33.614Z,45
2017-06-05T18:39:30.070Z,45
2017-06-05T18:44:25.959Z,40
2017-06-05T18:49:21.936Z,40
2017-06-05T18:54:18.020Z,30
2017-06-05T18:59:13.671Z,30
2017-06-05T19:04:10.614Z,25
2017-06-05T19:09:06.332Z,20
2017-06-05T19:14:03.086Z,15
2017-06-05T19:19:00.785Z,10
2017-06-05T19:23:56.014Z,10
2017-06-05T19:28:51.828Z,5
2017-06-05T19:33:49.506Z,5
2017-06-05T19:38:45.069Z,5
2017-06-05T19:43:41.041Z,0
2017-06-05T19:48:37.179Z,0
2017-06-05T19:53:32.769Z,0
2017-06-05T19:58:30.037Z,0
2017-06-05T20:03:26.690Z,0
2017-06-05T20:08:24.276Z,0
2017-06-05T20:13:20.358Z,0
2017-06-05T20:18:17.028Z,0
2017-06-05T20:23:13.047Z,0
2017-06-05T20:28:08.824Z,0
2017-06-05T20:33:04.536Z,0
2017-06-05T20:38:02.544Z,0
2017-06-05T20:42:58.791Z,0
2017-06-05T20:47:54.480Z,0
2017-06-05T20:52:50.456Z,0
2017-06-05T20:57:46.771Z,0
2017-06-05T21:02:42.147Z,0
2017-06-05T21:07:39.387Z,0
2017-06-05T21:12:34.968Z,0
2017-06-05T21:17:30.789Z,0
2017-06-05T21:22:27.216Z,0
2017-06-05T21:27:23.021Z,0
2017-06-05T21:32:20.859Z,0
2017-06-05T21:37:16.297Z,0
2017-06-05T21:42:12.076Z,0
2017-06-05T21:47:07.840Z,0
2017-06-05T21:52:03.983Z,0
2017-06-05T21:57:00.078Z,0
2017-06-05T22:01:56.032Z,0
2017-06-05T22:06:51.923Z,0
2017-06-05T22:11:47.805Z,0
2017-06-05T22:16:43.514Z,0
2017-06-05T22:21:39.680Z,0
2017-06-05T22:26:36.637Z,0
2017-06-05T22:31:32.308Z,0
2017-06-05T22:36:28.250Z,0
2017-06-05T22:41:24.171Z,0
2017-06-05T22:46:19.976Z,0
2017-06-05T22:51:15.878Z,0
2017-06-05T22:56:11.952Z,0
2017-06-05T23:01:07.823Z,0
2017-06-05T23:06:03.411Z,0
2017-06-05T23:10:59.160Z,0
2017-06-05T23:15:55.494Z,0
2017-06-05T23:20:51.455Z,0
2017-06-05T23:25:47.385Z,0
2017-06-05T23:30:43.222Z,0
2017-06-05T23:35:39.249Z,0
2017-06-05T23:40:35.270Z,0
2017-06-05T23:45:32.126Z,0
2017-06-05T23:50:27.675Z,0
2017-06-05T23:55:23.509Z,0
